Time;durP1;ratioP1;P1;durP2;ratioP2;P2;SDS_P1;SDS_P2;PMS_P1;PMS_P2;Temp;Humidity;BMP_temperature;BMP_pressure;BME280_temperature;BME280_humidity;BME280_pressure;Samples;Min_cycle;Max_cycle;Signal;HPM_P1;HPM_P2
2021/08/12 00:00:08;;;;;;;14.73;7.95;;;;;;;;;;1083162;54;20037;-62
2021/08/12 00:01:10;;;;;;;14.40;7.60;;;;;;;;;;1083116;54;20053;-62
2021/08/12 00:02:13;;;;;;;12.00;7.07;;;;;;;;;;1083121;54;20050;-61
2021/08/12 00:03:14;;;;;;;12.18;7.78;;;;;;;;;;1083103;54;20027;-62
2021/08/12 00:04:19;;;;;;;14.68;7.80;;;;;;;;;;1083125;54;20029;-62
2021/08/12 00:05:22;;;;;;;16.10;8.50;;;;;;;;;;1083061;54;20053;-62
2021/08/12 00:06:24;;;;;;;12.55;8.10;;;;;;;;;;1083110;54;20026;-62
2021/08/12 00:07:28;;;;;;;12.13;7.40;;;;;;;;;;1083186;54;20030;-61
2021/08/12 00:08:29;;;;;;;14.13;7.95;;;;;;;;;;1083076;54;20034;-62
2021/08/12 00:09:34;;;;;;;14.07;7.68;;;;;;;;;;1083108;54;20030;-62
2021/08/12 00:10:35;;;;;;;14.23;7.88;;;;;;;;;;1083553;39;20512;-62
2021/08/12 00:11:38;;;;;;;16.42;8.23;;;;;;;;;;1083126;54;20027;-62
2021/08/12 00:12:39;;;;;;;14.20;8.00;;;;;;;;;;1083186;54;20114;-61
2021/08/12 00:13:43;;;;;;;12.13;7.88;;;;;;;;;;1083092;54;20031;-62
2021/08/12 00:14:44;;;;;;;15.35;8.30;;;;;;;;;;1083101;54;20026;-61
2021/08/12 00:15:47;;;;;;;13.73;8.00;;;;;;;;;;1083062;54;20117;-61
2021/08/12 00:16:48;;;;;;;10.52;7.90;;;;;;;;;;1082944;54;20056;-62
2021/08/12 00:17:52;;;;;;;11.40;7.60;;;;;;;;;;1083101;54;20033;-61
2021/08/12 00:18:55;;;;;;;12.20;8.10;;;;;;;;;;1083074;54;20034;-62
2021/08/12 00:19:59;;;;;;;14.73;8.27;;;;;;;;;;1083122;54;20022;-62
2021/08/12 00:21:00;;;;;;;12.60;7.65;;;;;;;;;;1083517;39;20425;-62
2021/08/12 00:22:03;;;;;;;14.05;7.93;;;;;;;;;;1083105;54;20030;-62
2021/08/12 00:23:06;;;;;;;11.40;7.35;;;;;;;;;;1083066;54;20117;-62
2021/08/12 00:24:10;;;;;;;13.30;8.50;;;;;;;;;;1083138;54;20026;-62
2021/08/12 00:25:13;;;;;;;12.00;7.57;;;;;;;;;;1084759;31;20491;-62
2021/08/12 00:26:16;;;;;;;14.40;8.05;;;;;;;;;;1083549;39;20413;-62
2021/08/12 00:27:17;;;;;;;13.18;8.80;;;;;;;;;;1083031;54;20034;-62
2021/08/12 00:28:25;;;;;;;13.85;8.85;;;;;;;;;;1083052;54;20027;-62
2021/08/12 00:29:26;;;;;;;15.60;8.70;;;;;;;;;;1083129;54;20521;-61
2021/08/12 00:30:30;;;;;;;10.77;8.25;;;;;;;;;;1083147;54;20037;-62
2021/08/12 00:31:31;;;;;;;14.60;8.02;;;;;;;;;;1083044;54;20590;-62
2021/08/12 00:32:35;;;;;;;17.80;8.25;;;;;;;;;;1083143;54;20038;-62
2021/08/12 00:33:36;;;;;;;14.50;7.80;;;;;;;;;;1083450;39;20155;-62
2021/08/12 00:34:40;;;;;;;11.55;8.38;;;;;;;;;;1083121;54;20133;-62
2021/08/12 00:35:44;;;;;;;11.60;8.02;;;;;;;;;;1083073;54;20026;-62
2021/08/12 00:36:45;;;;;;;12.45;7.20;;;;;;;;;;1083083;54;20029;-61
2021/08/12 00:37:48;;;;;;;13.40;8.43;;;;;;;;;;1083073;54;20031;-61
2021/08/12 00:38:49;;;;;;;15.32;8.02;;;;;;;;;;1083050;54;20022;-62
2021/08/12 00:39:53;;;;;;;15.07;7.60;;;;;;;;;;1083071;54;20030;-62
2021/08/12 00:40:55;;;;;;;11.82;7.75;;;;;;;;;;1083043;54;20039;-61
2021/08/12 00:41:59;;;;;;;12.05;7.72;;;;;;;;;;1083036;54;20061;-62
2021/08/12 00:43:00;;;;;;;11.50;7.05;;;;;;;;;;1083036;54;20027;-62
2021/08/12 00:44:04;;;;;;;10.52;8.05;;;;;;;;;;1083106;54;20031;-62
2021/08/12 00:45:06;;;;;;;11.85;8.38;;;;;;;;;;1083091;54;20125;-62
2021/08/12 00:46:10;;;;;;;11.57;7.32;;;;;;;;;;1083098;54;20030;-62
2021/08/12 00:47:11;;;;;;;13.55;7.97;;;;;;;;;;1082764;46;20042;-62
2021/08/12 00:48:15;;;;;;;13.80;8.45;;;;;;;;;;1082877;46;20046;-62
2021/08/12 00:49:16;;;;;;;13.15;7.75;;;;;;;;;;1083484;39;20593;-61
2021/08/12 00:50:21;;;;;;;13.95;8.32;;;;;;;;;;1083111;54;20027;-61
2021/08/12 00:51:22;;;;;;;11.85;7.72;;;;;;;;;;1083000;54;20033;-61
2021/08/12 00:52:26;;;;;;;12.40;7.45;;;;;;;;;;1083033;54;20031;-61
2021/08/12 00:53:28;;;;;;;13.50;8.27;;;;;;;;;;1083096;54;20027;-62
2021/08/12 00:54:31;;;;;;;15.15;7.97;;;;;;;;;;1083123;54;20033;-62
2021/08/12 00:55:32;;;;;;;10.90;7.07;;;;;;;;;;1083083;54;20057;-62
2021/08/12 00:56:37;;;;;;;12.38;7.60;;;;;;;;;;1083042;54;20031;-62
2021/08/12 00:57:38;;;;;;;13.93;7.75;;;;;;;;;;1082990;54;20033;-61
2021/08/12 00:58:42;;;;;;;12.82;7.97;;;;;;;;;;1083079;54;20026;-62
2021/08/12 00:59:43;;;;;;;14.27;7.63;;;;;;;;;;1083021;54;20122;-62
2021/08/12 01:00:47;;;;;;;15.25;8.52;;;;;;;;;;1083023;54;20038;-62
2021/08/12 01:01:48;;;;;;;15.80;8.00;;;;;;;;;;1083103;54;20030;-62
2021/08/12 01:02:52;;;;;;;11.95;7.50;;;;;;;;;;1083057;54;20077;-61
2021/08/12 01:03:54;;;;;;;11.75;7.40;;;;;;;;;;1083077;48;20030;-62
2021/08/12 01:04:58;;;;;;;16.60;8.52;;;;;;;;;;1083024;47;20073;-62
2021/08/12 01:06:00;;;;;;;12.05;7.53;;;;;;;;;;1083038;54;20125;-61
2021/08/12 01:07:10;;;;;;;16.42;8.02;;;;;;;;;;1082675;54;20027;-62
2021/08/12 01:08:14;;;;;;;14.35;8.45;;;;;;;;;;1082758;54;20038;-62
2021/08/12 01:09:27;;;;;;;11.77;7.32;;;;;;;;;;1083017;54;20033;-62
2021/08/12 01:10:38;;;;;;;13.55;8.25;;;;;;;;;;1083017;54;20044;-62
2021/08/12 01:11:44;;;;;;;;;;;;;;;;;;1083196;54;20089;-62
2021/08/12 01:12:56;;;;;;;11.27;7.45;;;;;;;;;;1082999;54;19943;-62
2021/08/12 01:14:08;;;;;;;11.60;7.45;;;;;;;;;;1083010;54;20026;-61
2021/08/12 01:15:22;;;;;;;12.30;7.75;;;;;;;;;;1083035;54;20548;-61
2021/08/12 01:16:38;;;;;;;14.55;8.50;;;;;;;;;;1083034;47;20030;-62
2021/08/12 01:17:49;;;;;;;13.45;7.80;;;;;;;;;;1082958;54;20033;-62
2021/08/12 01:18:58;;;;;;;12.27;8.55;;;;;;;;;;1082998;54;20033;-62
2021/08/12 01:20:37;;;;;;;13.52;7.88;;;;;;;;;;1083052;54;20033;-62
2021/08/12 01:21:55;;;;;;;12.70;7.88;;;;;;;;;;1083022;54;20022;-61
2021/08/12 01:22:59;;;;;;;12.75;8.07;;;;;;;;;;1083015;54;20121;-62
2021/08/12 01:24:08;;;;;;;12.68;7.40;;;;;;;;;;1083024;54;20031;-61
2021/08/12 01:25:14;;;;;;;13.85;8.10;;;;;;;;;;1083032;54;20026;-61
2021/08/12 01:26:22;;;;;;;12.93;7.75;;;;;;;;;;1083038;54;20026;-62
2021/08/12 01:27:27;;;;;;;16.08;8.30;;;;;;;;;;1082939;54;20040;-61
2021/08/12 01:28:35;;;;;;;13.48;7.50;;;;;;;;;;1083032;54;20027;-62
2021/08/12 01:29:49;;;;;;;10.50;7.93;;;;;;;;;;1083367;54;20038;-62
2021/08/12 01:30:59;;;;;;;13.30;8.57;;;;;;;;;;1083324;47;20037;-61
2021/08/12 01:32:06;;;;;;;12.57;8.20;;;;;;;;;;1083409;54;20049;-61
2021/08/12 01:33:15;;;;;;;10.38;7.97;;;;;;;;;;1083381;54;20037;-62
2021/08/12 01:34:28;;;;;;;12.73;7.72;;;;;;;;;;1083362;54;20045;-60
2021/08/12 01:35:32;;;;;;;14.60;8.15;;;;;;;;;;1083371;54;20023;-61
2021/08/12 01:36:40;;;;;;;13.65;8.02;;;;;;;;;;1083392;54;20041;-61
2021/08/12 01:37:47;;;;;;;11.88;7.88;;;;;;;;;;1083313;54;20038;-60
2021/08/12 01:38:51;;;;;;;11.13;7.75;;;;;;;;;;1083371;54;20042;-60
2021/08/12 01:39:56;;;;;;;15.05;8.40;;;;;;;;;;1083339;54;20535;-61
2021/08/12 01:40:58;;;;;;;12.13;8.00;;;;;;;;;;1083288;54;20038;-61
2021/08/12 01:42:02;;;;;;;16.80;8.75;;;;;;;;;;1083404;54;20114;-61
2021/08/12 01:43:08;;;;;;;13.10;9.13;;;;;;;;;;1083320;47;20142;-61
2021/08/12 01:44:15;;;;;;;13.77;7.82;;;;;;;;;;1083382;54;20037;-61
2021/08/12 01:45:17;;;;;;;11.75;7.60;;;;;;;;;;1083405;54;20026;-61
2021/08/12 01:46:21;;;;;;;14.95;7.82;;;;;;;;;;1083333;54;20026;-62
2021/08/12 01:47:24;;;;;;;16.02;8.15;;;;;;;;;;1083237;54;20191;-62
2021/08/12 01:48:29;;;;;;;10.32;7.50;;;;;;;;;;1082979;54;20102;-62
2021/08/12 01:49:31;;;;;;;12.68;8.75;;;;;;;;;;1083083;54;20027;-60
2021/08/12 01:50:38;;;;;;;11.70;7.75;;;;;;;;;;1083301;54;20026;-61
2021/08/12 01:51:43;;;;;;;13.93;8.27;;;;;;;;;;1083338;54;20027;-61
2021/08/12 01:52:46;;;;;;;17.52;8.30;;;;;;;;;;1083769;39;20537;-60
2021/08/12 01:53:51;;;;;;;14.50;8.13;;;;;;;;;;1083327;54;20026;-61
2021/08/12 01:54:53;;;;;;;13.85;7.97;;;;;;;;;;1083342;54;20061;-61
2021/08/12 01:55:57;;;;;;;14.02;8.57;;;;;;;;;;1083339;54;20038;-62
2021/08/12 01:56:58;;;;;;;11.60;7.60;;;;;;;;;;1083303;54;20026;-61
2021/08/12 01:58:03;;;;;;;11.82;7.72;;;;;;;;;;1083671;39;20457;-61
2021/08/12 01:59:06;;;;;;;13.25;7.97;;;;;;;;;;1083288;54;20126;-62
2021/08/12 02:00:12;;;;;;;11.93;7.53;;;;;;;;;;1083763;39;20469;-62
2021/08/12 02:01:14;;;;;;;13.55;7.97;;;;;;;;;;1083323;54;20158;-62
2021/08/12 02:02:18;;;;;;;12.27;8.45;;;;;;;;;;1083351;54;20022;-61
2021/08/12 02:03:23;;;;;;;13.32;8.10;;;;;;;;;;1083732;39;20518;-61
2021/08/12 02:04:26;;;;;;;12.00;8.38;;;;;;;;;;1083286;54;20114;-61
2021/08/12 02:05:31;;;;;;;13.05;8.45;;;;;;;;;;1083278;54;20026;-62
2021/08/12 02:06:35;;;;;;;13.55;7.70;;;;;;;;;;1083284;54;20045;-62
2021/08/12 02:07:39;;;;;;;12.32;8.18;;;;;;;;;;1083226;54;20540;-61
2021/08/12 02:08:40;;;;;;;13.85;8.98;;;;;;;;;;1083305;54;20548;-61
2021/08/12 02:09:44;;;;;;;11.10;7.97;;;;;;;;;;1083300;54;20026;-60
2021/08/12 02:10:45;;;;;;;12.20;8.52;;;;;;;;;;1083274;54;20039;-62
2021/08/12 02:11:49;;;;;;;14.90;7.82;;;;;;;;;;1083319;54;20034;-62
2021/08/12 02:12:50;;;;;;;14.32;8.15;;;;;;;;;;1083294;54;20069;-62
2021/08/12 02:13:54;;;;;;;14.90;8.38;;;;;;;;;;1083302;54;20030;-61
2021/08/12 02:14:55;;;;;;;14.63;9.10;;;;;;;;;;1083304;54;20031;-62
2021/08/12 02:15:58;;;;;;;10.57;8.07;;;;;;;;;;1083265;54;20033;-60
2021/08/12 02:16:59;;;;;;;12.88;8.55;;;;;;;;;;1083271;54;20057;-62
2021/08/12 02:18:03;;;;;;;14.73;8.13;;;;;;;;;;1083266;54;20078;-62
2021/08/12 02:19:05;;;;;;;12.38;8.18;;;;;;;;;;1083318;54;20053;-62
2021/08/12 02:20:12;;;;;;;13.55;8.80;;;;;;;;;;1083732;39;20449;-61
2021/08/12 02:21:14;;;;;;;16.52;9.52;;;;;;;;;;1083337;54;20550;-60
2021/08/12 02:22:24;;;;;;;11.57;8.20;;;;;;;;;;1083290;54;20039;-63
2021/08/12 02:23:29;;;;;;;14.48;8.93;;;;;;;;;;1083344;54;20110;-62
2021/08/12 02:24:39;;;;;;;14.75;8.65;;;;;;;;;;1083362;54;20061;-61
2021/08/12 02:25:51;;;;;;;11.60;8.93;;;;;;;;;;1083378;54;20065;-61
2021/08/12 02:27:03;;;;;;;13.02;8.70;;;;;;;;;;1083300;54;20110;-61
2021/08/12 02:28:07;;;;;;;14.15;8.60;;;;;;;;;;1083212;54;20022;-61
2021/08/12 02:29:13;;;;;;;12.48;8.50;;;;;;;;;;1083283;54;20023;-62
2021/08/12 02:30:15;;;;;;;14.15;8.90;;;;;;;;;;1083261;54;20138;-62
2021/08/12 02:31:21;;;;;;;14.45;9.50;;;;;;;;;;1083303;54;20118;-62
2021/08/12 02:32:28;;;;;;;15.80;8.93;;;;;;;;;;1083260;54;20034;-62
2021/08/12 02:33:37;;;;;;;13.10;8.70;;;;;;;;;;1083295;54;20041;-62
2021/08/12 02:34:39;;;;;;;14.55;8.35;;;;;;;;;;1083324;54;20027;-61
2021/08/12 02:35:43;;;;;;;13.02;8.45;;;;;;;;;;1083256;54;20054;-61
2021/08/12 02:36:48;;;;;;;15.55;9.35;;;;;;;;;;1083661;39;20451;-62
2021/08/12 02:37:56;;;;;;;14.10;8.93;;;;;;;;;;1083209;54;20045;-61
2021/08/12 02:38:58;;;;;;;15.05;8.82;;;;;;;;;;1083284;54;20027;-62
2021/08/12 02:40:07;;;;;;;13.85;8.52;;;;;;;;;;1083193;54;20026;-61
2021/08/12 02:41:12;;;;;;;14.95;7.97;;;;;;;;;;1082973;47;20065;-62
2021/08/12 02:42:16;;;;;;;15.95;8.10;;;;;;;;;;1083078;54;20038;-61
2021/08/12 02:43:21;;;;;;;11.05;7.80;;;;;;;;;;1083227;54;20083;-61
2021/08/12 02:44:24;;;;;;;15.38;8.77;;;;;;;;;;1083215;54;20026;-62
2021/08/12 02:45:28;;;;;;;12.80;7.88;;;;;;;;;;1083249;54;20077;-61
2021/08/12 02:46:31;;;;;;;12.75;8.07;;;;;;;;;;1083626;39;20528;-62
2021/08/12 02:47:36;;;;;;;13.77;8.15;;;;;;;;;;1083182;54;20027;-62
2021/08/12 02:48:38;;;;;;;15.50;8.55;;;;;;;;;;1083263;54;20552;-62
2021/08/12 02:49:45;;;;;;;12.27;8.38;;;;;;;;;;1083288;54;20113;-62
2021/08/12 02:50:46;;;;;;;14.77;9.32;;;;;;;;;;1084004;31;20492;-62
2021/08/12 02:51:51;;;;;;;14.75;7.95;;;;;;;;;;1083273;54;20034;-61
2021/08/12 02:52:57;;;;;;;14.68;9.30;;;;;;;;;;1083133;54;20030;-62
2021/08/12 02:54:00;;;;;;;17.60;8.23;;;;;;;;;;1083260;54;20118;-62
2021/08/12 02:55:04;;;;;;;13.13;8.35;;;;;;;;;;1083224;54;20571;-62
2021/08/12 02:56:10;;;;;;;14.98;8.55;;;;;;;;;;1083957;31;20496;-62
2021/08/12 02:57:14;;;;;;;14.13;8.20;;;;;;;;;;1083250;54;20029;-62
2021/08/12 02:58:16;;;;;;;14.27;8.43;;;;;;;;;;1083164;54;20027;-61
2021/08/12 02:59:20;;;;;;;13.77;8.30;;;;;;;;;;1083261;54;20030;-61
2021/08/12 03:00:22;;;;;;;12.77;8.10;;;;;;;;;;1083210;54;20040;-62
2021/08/12 03:01:28;;;;;;;13.80;8.15;;;;;;;;;;1083635;39;20433;-62
2021/08/12 03:02:31;;;;;;;12.05;8.45;;;;;;;;;;1083240;54;20035;-62
2021/08/12 03:03:38;;;;;;;14.23;8.35;;;;;;;;;;1083186;54;20109;-62
2021/08/12 03:04:39;;;;;;;13.45;8.38;;;;;;;;;;1083265;54;20053;-62
2021/08/12 03:05:43;;;;;;;14.20;8.20;;;;;;;;;;1083255;54;20030;-62
2021/08/12 03:06:46;;;;;;;11.32;7.95;;;;;;;;;;1083209;54;20073;-62
2021/08/12 03:07:50;;;;;;;12.40;8.70;;;;;;;;;;1083136;54;20114;-62
2021/08/12 03:08:53;;;;;;;12.00;8.30;;;;;;;;;;1083688;39;20441;-61
2021/08/12 03:10:00;;;;;;;12.77;8.25;;;;;;;;;;1084041;31;20466;-62
2021/08/12 03:11:02;;;;;;;12.80;8.60;;;;;;;;;;1083262;54;20057;-61
2021/08/12 03:12:07;;;;;;;14.93;8.60;;;;;;;;;;1083177;54;20027;-62
2021/08/12 03:13:08;;;;;;;12.00;8.32;;;;;;;;;;1083238;54;20046;-61
2021/08/12 03:14:12;;;;;;;14.52;8.70;;;;;;;;;;1083239;54;20026;-62
2021/08/12 03:15:13;;;;;;;12.63;8.68;;;;;;;;;;1083236;54;20122;-62
2021/08/12 03:16:17;;;;;;;13.25;9.18;;;;;;;;;;1083380;54;20030;-61
2021/08/12 03:17:19;;;;;;;12.98;8.55;;;;;;;;;;1083504;47;20030;-62
2021/08/12 03:18:23;;;;;;;16.63;8.93;;;;;;;;;;1083407;54;20536;-62
2021/08/12 03:19:25;;;;;;;13.05;9.15;;;;;;;;;;1083481;54;20022;-61
2021/08/12 03:20:29;;;;;;;15.75;8.60;;;;;;;;;;1083417;54;20042;-62
2021/08/12 03:21:31;;;;;;;12.75;8.38;;;;;;;;;;1083336;54;20034;-61
2021/08/12 03:22:34;;;;;;;14.73;8.32;;;;;;;;;;1083321;54;20031;-62
2021/08/12 03:23:36;;;;;;;15.55;8.60;;;;;;;;;;1083234;54;20552;-63
2021/08/12 03:24:44;;;;;;;11.93;8.38;;;;;;;;;;1083264;54;20030;-62
2021/08/12 03:25:45;;;;;;;13.23;8.23;;;;;;;;;;1083227;54;20019;-61
2021/08/12 03:26:54;;;;;;;11.35;8.68;;;;;;;;;;1083252;54;20029;-62
2021/08/12 03:27:59;;;;;;;13.35;8.52;;;;;;;;;;1083165;54;20130;-61
2021/08/12 03:28:59;;;;;;;13.43;8.57;;;;;;;;;;1083257;54;20089;-61
2021/08/12 03:30:03;;;;;;;13.13;8.85;;;;;;;;;;1083254;54;20026;-61
2021/08/12 03:31:04;;;;;;;14.82;9.23;;;;;;;;;;1083990;31;20505;-61
2021/08/12 03:32:09;;;;;;;11.60;8.80;;;;;;;;;;1083231;54;20030;-61
2021/08/12 03:33:12;;;;;;;13.20;8.70;;;;;;;;;;1083239;54;20037;-61
2021/08/12 03:34:13;;;;;;;12.75;8.30;;;;;;;;;;1083235;54;20041;-62
2021/08/12 03:35:17;;;;;;;13.02;9.63;;;;;;;;;;1083190;54;20030;-62
2021/08/12 03:36:21;;;;;;;16.17;8.95;;;;;;;;;;1083199;54;20038;-62
2021/08/12 03:37:22;;;;;;;11.70;7.78;;;;;;;;;;1083208;54;20015;-62
2021/08/12 03:38:27;;;;;;;13.00;8.50;;;;;;;;;;1083145;54;20034;-62
2021/08/12 03:39:31;;;;;;;12.05;8.10;;;;;;;;;;1083174;54;20026;-61
2021/08/12 03:40:36;;;;;;;10.90;8.00;;;;;;;;;;1083200;54;20033;-61
2021/08/12 03:41:40;;;;;;;12.75;8.35;;;;;;;;;;1083141;54;20034;-61
2021/08/12 03:42:41;;;;;;;13.50;8.40;;;;;;;;;;1083172;54;20042;-62
2021/08/12 03:43:46;;;;;;;13.13;8.35;;;;;;;;;;1083205;54;20026;-61
2021/08/12 03:44:47;;;;;;;12.07;7.80;;;;;;;;;;1083158;54;20588;-62
2021/08/12 03:45:50;;;;;;;15.65;8.88;;;;;;;;;;1083232;54;20039;-62
2021/08/12 03:46:52;;;;;;;14.93;8.25;;;;;;;;;;1083170;54;20026;-61
2021/08/12 03:47:55;;;;;;;14.68;8.77;;;;;;;;;;1083061;54;20042;-61
2021/08/12 03:48:56;;;;;;;12.30;8.20;;;;;;;;;;1083889;31;20527;-61
2021/08/12 03:50:00;;;;;;;13.40;8.60;;;;;;;;;;1083212;54;20034;-62
2021/08/12 03:51:01;;;;;;;12.75;8.48;;;;;;;;;;1083071;54;20038;-62
2021/08/12 03:52:06;;;;;;;12.50;8.23;;;;;;;;;;1083039;54;20027;-61
2021/08/12 03:53:07;;;;;;;12.25;8.30;;;;;;;;;;1083178;54;20125;-61
2021/08/12 03:54:10;;;;;;;13.95;8.20;;;;;;;;;;1083614;39;20433;-62
2021/08/12 03:55:14;;;;;;;13.52;8.73;;;;;;;;;;1083173;54;20038;-61
2021/08/12 03:56:16;;;;;;;12.52;8.40;;;;;;;;;;1083110;54;20027;-62
2021/08/12 03:57:20;;;;;;;13.73;8.52;;;;;;;;;;1083165;54;20030;-62
2021/08/12 03:58:21;;;;;;;13.23;8.68;;;;;;;;;;1083093;54;20540;-62
2021/08/12 03:59:24;;;;;;;14.43;8.68;;;;;;;;;;1083155;54;20037;-62
2021/08/12 04:00:28;;;;;;;13.60;9.15;;;;;;;;;;1083158;54;20576;-61
2021/08/12 04:01:30;;;;;;;10.90;8.10;;;;;;;;;;1083153;54;20110;-61
2021/08/12 04:02:33;;;;;;;12.02;8.27;;;;;;;;;;1083205;54;20033;-62
2021/08/12 04:03:34;;;;;;;12.43;8.02;;;;;;;;;;1083133;54;20109;-61
2021/08/12 04:04:38;;;;;;;13.23;8.52;;;;;;;;;;1083101;54;20030;-62
2021/08/12 04:05:41;;;;;;;11.55;8.10;;;;;;;;;;1083584;39;20511;-62
2021/08/12 04:06:43;;;;;;;11.93;8.32;;;;;;;;;;1083597;39;20443;-61
2021/08/12 04:07:47;;;;;;;15.10;8.98;;;;;;;;;;1083129;54;20036;-61
2021/08/12 04:08:48;;;;;;;13.13;8.60;;;;;;;;;;1083117;54;20027;-61
2021/08/12 04:09:51;;;;;;;15.32;8.88;;;;;;;;;;1083151;54;20030;-62
2021/08/12 04:10:52;;;;;;;14.50;8.38;;;;;;;;;;1083577;39;20524;-62
2021/08/12 04:11:57;;;;;;;13.45;8.15;;;;;;;;;;1083165;54;20048;-61
2021/08/12 04:12:58;;;;;;;14.48;9.13;;;;;;;;;;1083544;39;20409;-62
2021/08/12 04:14:02;;;;;;;13.63;8.65;;;;;;;;;;1083172;54;20029;-62
2021/08/12 04:15:03;;;;;;;14.57;8.75;;;;;;;;;;1083534;39;20413;-61
2021/08/12 04:16:08;;;;;;;12.20;8.68;;;;;;;;;;1083627;39;20444;-62
2021/08/12 04:17:09;;;;;;;14.85;9.00;;;;;;;;;;1083133;54;20014;-62
2021/08/12 04:18:12;;;;;;;15.63;8.70;;;;;;;;;;1083107;54;20536;-61
2021/08/12 04:19:14;;;;;;;15.60;9.15;;;;;;;;;;1083091;54;20038;-62
2021/08/12 04:20:18;;;;;;;15.48;9.30;;;;;;;;;;1083133;54;20029;-61
2021/08/12 04:21:19;;;;;;;15.75;9.80;;;;;;;;;;1083177;54;20555;-61
2021/08/12 04:22:22;;;;;;;14.75;9.30;;;;;;;;;;1083149;54;20030;-61
2021/08/12 04:23:24;;;;;;;15.00;9.32;;;;;;;;;;1083227;54;20049;-61
2021/08/12 04:24:27;;;;;;;15.63;9.38;;;;;;;;;;1083190;54;20026;-61
2021/08/12 04:25:28;;;;;;;15.13;10.00;;;;;;;;;;1083103;54;20065;-61
2021/08/12 04:26:32;;;;;;;16.85;9.70;;;;;;;;;;1083144;54;20022;-61
2021/08/12 04:27:36;;;;;;;13.07;9.50;;;;;;;;;;1083123;54;20022;-61
2021/08/12 04:28:40;;;;;;;15.13;9.35;;;;;;;;;;1083061;54;20034;-61
2021/08/12 04:29:41;;;;;;;14.68;9.60;;;;;;;;;;1083098;54;20050;-61
2021/08/12 04:30:45;;;;;;;16.73;9.80;;;;;;;;;;1083130;54;20034;-61
2021/08/12 04:31:46;;;;;;;15.32;9.68;;;;;;;;;;1083102;54;20034;-61
2021/08/12 04:32:50;;;;;;;15.38;9.55;;;;;;;;;;1083147;54;20038;-61
2021/08/12 04:33:51;;;;;;;14.73;9.65;;;;;;;;;;1083130;54;20030;-61
2021/08/12 04:34:54;;;;;;;14.63;9.65;;;;;;;;;;1083495;39;20421;-61
2021/08/12 04:35:55;;;;;;;14.48;9.07;;;;;;;;;;1083102;54;20027;-61
2021/08/12 04:36:59;;;;;;;12.80;9.00;;;;;;;;;;1083111;54;20077;-61
2021/08/12 04:38:00;;;;;;;12.48;9.23;;;;;;;;;;1083072;54;20121;-61
2021/08/12 04:39:04;;;;;;;14.52;9.18;;;;;;;;;;1083531;39;20433;-61
2021/08/12 04:40:06;;;;;;;16.52;9.35;;;;;;;;;;1083069;54;20045;-61
2021/08/12 04:41:09;;;;;;;17.23;9.77;;;;;;;;;;1083125;54;20019;-61
2021/08/12 04:42:13;;;;;;;12.50;9.43;;;;;;;;;;1083560;39;20436;-61
2021/08/12 04:43:15;;;;;;;15.82;9.60;;;;;;;;;;1083057;54;20027;-61
2021/08/12 04:44:19;;;;;;;12.50;8.95;;;;;;;;;;1083074;54;20050;-61
2021/08/12 04:45:21;;;;;;;14.77;10.10;;;;;;;;;;1083077;54;20065;-61
2021/08/12 04:46:24;;;;;;;15.23;9.90;;;;;;;;;;1083094;54;20031;-61
2021/08/12 04:47:25;;;;;;;14.52;9.45;;;;;;;;;;1083185;46;20046;-61
2021/08/12 04:48:29;;;;;;;16.15;9.63;;;;;;;;;;1083057;54;20027;-61
2021/08/12 04:49:30;;;;;;;14.02;9.18;;;;;;;;;;1083148;54;20103;-61
2021/08/12 04:50:37;;;;;;;14.05;9.30;;;;;;;;;;1083160;54;20030;-61
2021/08/12 04:51:39;;;;;;;15.90;9.77;;;;;;;;;;1083085;54;20559;-61
2021/08/12 04:52:42;;;;;;;13.75;9.65;;;;;;;;;;1083125;54;20030;-61
2021/08/12 04:53:43;;;;;;;15.65;8.90;;;;;;;;;;1083071;54;20038;-61
2021/08/12 04:54:47;;;;;;;16.00;9.48;;;;;;;;;;1083059;54;20026;-62
2021/08/12 04:55:48;;;;;;;14.63;8.65;;;;;;;;;;1083039;54;20030;-61
2021/08/12 04:56:51;;;;;;;13.95;9.00;;;;;;;;;;1083084;54;20049;-61
2021/08/12 04:57:52;;;;;;;12.98;8.88;;;;;;;;;;1083045;54;20555;-61
2021/08/12 04:58:58;;;;;;;14.07;9.35;;;;;;;;;;1083064;54;20029;-61
2021/08/12 04:59:59;;;;;;;15.30;9.95;;;;;;;;;;1083051;54;20022;-61
2021/08/12 05:01:03;;;;;;;12.18;9.18;;;;;;;;;;1083803;31;20520;-62
2021/08/12 05:02:04;;;;;;;11.75;8.85;;;;;;;;;;1083080;54;20027;-61
2021/08/12 05:03:08;;;;;;;11.57;8.50;;;;;;;;;;1083525;39;20439;-61
2021/08/12 05:04:09;;;;;;;17.52;9.18;;;;;;;;;;1083311;54;20045;-61
2021/08/12 05:05:13;;;;;;;16.17;9.23;;;;;;;;;;1083408;54;20030;-62
2021/08/12 05:06:15;;;;;;;12.30;8.75;;;;;;;;;;1083409;54;20057;-61
2021/08/12 05:07:18;;;;;;;16.15;9.13;;;;;;;;;;1083386;54;20138;-61
2021/08/12 05:08:24;;;;;;;16.05;9.43;;;;;;;;;;1083766;39;20421;-62
2021/08/12 05:09:28;;;;;;;13.73;9.50;;;;;;;;;;1083395;54;20031;-61
2021/08/12 05:10:29;;;;;;;13.23;9.00;;;;;;;;;;1083408;54;20631;-62
2021/08/12 05:11:32;;;;;;;13.35;9.32;;;;;;;;;;1083660;54;20038;-59
2021/08/12 05:12:33;;;;;;;14.77;10.30;;;;;;;;;;1083371;54;20041;-59
2021/08/12 05:13:37;;;;;;;16.63;9.15;;;;;;;;;;1083374;54;20034;-59
2021/08/12 05:14:42;;;;;;;15.23;9.25;;;;;;;;;;1083437;54;20102;-59
2021/08/12 05:15:43;;;;;;;13.90;9.15;;;;;;;;;;1083408;54;20122;-59
2021/08/12 05:16:46;;;;;;;14.70;8.93;;;;;;;;;;1083465;54;20015;-59
2021/08/12 05:17:47;;;;;;;12.82;9.32;;;;;;;;;;1083345;54;20026;-59
2021/08/12 05:18:51;;;;;;;16.05;8.75;;;;;;;;;;1083398;54;20027;-59
2021/08/12 05:19:52;;;;;;;16.95;9.35;;;;;;;;;;1083350;54;20038;-59
2021/08/12 05:20:56;;;;;;;14.50;8.73;;;;;;;;;;1083399;54;20034;-59
2021/08/12 05:21:57;;;;;;;13.60;9.30;;;;;;;;;;1083374;54;20023;-59
2021/08/12 05:23:00;;;;;;;15.73;9.98;;;;;;;;;;1083367;54;20030;-59
2021/08/12 05:24:01;;;;;;;15.77;9.65;;;;;;;;;;1083398;54;20027;-59
2021/08/12 05:25:06;;;;;;;14.02;9.50;;;;;;;;;;1083404;54;20037;-59
2021/08/12 05:26:06;;;;;;;12.82;8.73;;;;;;;;;;1083369;54;20065;-59
2021/08/12 05:27:10;;;;;;;14.52;9.70;;;;;;;;;;1083371;54;20114;-60
2021/08/12 05:28:11;;;;;;;14.82;9.25;;;;;;;;;;1083363;54;20030;-59
2021/08/12 05:29:15;;;;;;;12.00;8.38;;;;;;;;;;1083325;54;20023;-59
2021/08/12 05:30:20;;;;;;;13.02;8.55;;;;;;;;;;1083358;54;20528;-59
2021/08/12 05:31:23;;;;;;;13.38;8.82;;;;;;;;;;1083093;47;20034;-59
2021/08/12 05:32:24;;;;;;;15.65;9.70;;;;;;;;;;1083099;54;20030;-59
2021/08/12 05:33:28;;;;;;;13.93;9.07;;;;;;;;;;1083373;54;20015;-59
2021/08/12 05:34:29;;;;;;;14.85;9.85;;;;;;;;;;1083356;54;20057;-59
2021/08/12 05:35:33;;;;;;;14.20;9.57;;;;;;;;;;1083423;54;20122;-59
2021/08/12 05:36:36;;;;;;;12.98;8.73;;;;;;;;;;1083313;54;20019;-59
2021/08/12 05:37:37;;;;;;;11.82;8.90;;;;;;;;;;1083295;54;20110;-59
2021/08/12 05:38:41;;;;;;;12.38;9.18;;;;;;;;;;1083368;54;20029;-59
2021/08/12 05:39:42;;;;;;;14.52;9.40;;;;;;;;;;1083369;54;20540;-59
2021/08/12 05:40:45;;;;;;;12.80;8.50;;;;;;;;;;1083365;54;20025;-59
2021/08/12 05:41:46;;;;;;;12.32;8.95;;;;;;;;;;1083368;54;20050;-59
2021/08/12 05:42:50;;;;;;;14.98;9.48;;;;;;;;;;1083363;54;20015;-59
2021/08/12 05:43:51;;;;;;;14.35;9.07;;;;;;;;;;1083346;54;20015;-59
2021/08/12 05:44:55;;;;;;;13.65;9.43;;;;;;;;;;1083336;54;20074;-59
2021/08/12 05:45:58;;;;;;;13.48;9.32;;;;;;;;;;1083343;54;20058;-59
2021/08/12 05:47:02;;;;;;;12.93;8.95;;;;;;;;;;1083081;47;20027;-59
2021/08/12 05:48:06;;;;;;;12.98;8.73;;;;;;;;;;1083040;54;20026;-59
2021/08/12 05:49:07;;;;;;;11.35;8.32;;;;;;;;;;1083308;54;20018;-59
2021/08/12 05:50:12;;;;;;;13.45;8.77;;;;;;;;;;1083324;54;20037;-59
2021/08/12 05:51:15;;;;;;;12.68;8.30;;;;;;;;;;1083394;54;20033;-60
2021/08/12 05:52:16;;;;;;;14.20;8.60;;;;;;;;;;1083348;54;20022;-60
2021/08/12 05:53:23;;;;;;;12.98;8.77;;;;;;;;;;1083352;54;20026;-60
2021/08/12 05:54:27;;;;;;;13.13;9.02;;;;;;;;;;1083386;54;20101;-60
2021/08/12 05:55:30;;;;;;;13.45;8.68;;;;;;;;;;1083394;54;20041;-60
2021/08/12 05:56:31;;;;;;;13.60;8.93;;;;;;;;;;1083376;54;20134;-60
2021/08/12 05:57:35;;;;;;;16.23;9.02;;;;;;;;;;1083336;54;20675;-60
2021/08/12 05:58:38;;;;;;;13.40;9.15;;;;;;;;;;1083386;54;20018;-59
2021/08/12 05:59:42;;;;;;;14.98;10.38;;;;;;;;;;1083375;54;20029;-59
2021/08/12 06:00:43;;;;;;;18.90;10.40;;;;;;;;;;1083371;54;20019;-59
2021/08/12 06:01:48;;;;;;;17.10;11.75;;;;;;;;;;1083328;54;20018;-59
2021/08/12 06:02:50;;;;;;;14.88;9.38;;;;;;;;;;1083778;39;20424;-59
2021/08/12 06:03:53;;;;;;;17.77;11.27;;;;;;;;;;1083336;54;20019;-58
2021/08/12 06:04:54;;;;;;;16.02;10.75;;;;;;;;;;1083348;54;20049;-59
2021/08/12 06:05:58;;;;;;;18.27;12.00;;;;;;;;;;1083797;39;20428;-59
2021/08/12 06:06:59;;;;;;;20.15;12.50;;;;;;;;;;1083334;54;20060;-59
2021/08/12 06:08:04;;;;;;;19.27;11.52;;;;;;;;;;1083335;54;20027;-59
2021/08/12 06:09:08;;;;;;;19.42;10.90;;;;;;;;;;1083251;54;20036;-59
2021/08/12 06:10:13;;;;;;;18.55;10.55;;;;;;;;;;1083799;39;20424;-59
2021/08/12 06:11:14;;;;;;;17.98;11.77;;;;;;;;;;1083306;54;20113;-59
2021/08/12 06:12:18;;;;;;;16.65;11.63;;;;;;;;;;1083034;54;20022;-59
2021/08/12 06:13:19;;;;;;;15.63;11.30;;;;;;;;;;1083060;54;20528;-59
2021/08/12 06:14:22;;;;;;;21.83;14.40;;;;;;;;;;1083214;54;20026;-59
2021/08/12 06:15:24;;;;;;;21.75;14.93;;;;;;;;;;1083311;54;20022;-59